Terminal Aerodrome Forecast
Issued by NWS Melbourne, FL

Home | Current Version | Previous Version | Text Only | Print | Product List | Glossary On
Versions: 1 2 3 4 5 6 7 8 9 10 11 12 13 14
990
FTUS42 KMLB 251140
TAFMLB
TAF
KMLB 251140Z 2512/2612 20004KT P6SM SCT150 BKN300
     FM251400 VRB05KT P6SM FEW030 SCT300
     FM251630 08007KT P6SM FEW035 SCT300
     FM252000 12010KT P6SM FEW035 SCT060 SCT300
     FM260000 VRB04KT P6SM SCT300=

USA.gov is the U.S. government's official web portal to all federal, state and local government web resources and services.